sensor_id;sensor_type;location;lat;lon;timestamp;P1;durP1;ratioP1;P2;durP2;ratioP2
71464;SDS011;59274;49.874;9.154;2022-12-10T00:01:10;23.85;;;10.35;;
71464;SDS011;59274;49.874;9.154;2022-12-10T00:03:37;23.77;;;10.90;;
71464;SDS011;59274;49.874;9.154;2022-12-10T00:06:04;25.70;;;10.38;;
71464;SDS011;59274;49.874;9.154;2022-12-10T00:08:33;20.03;;;9.37;;
71464;SDS011;59274;49.874;9.154;2022-12-10T00:10:59;21.70;;;10.02;;
71464;SDS011;59274;49.874;9.154;2022-12-10T00:13:27;24.58;;;10.73;;
71464;SDS011;59274;49.874;9.154;2022-12-10T00:15:52;21.53;;;10.07;;
71464;SDS011;59274;49.874;9.154;2022-12-10T00:18:18;23.83;;;11.13;;
71464;SDS011;59274;49.874;9.154;2022-12-10T00:20:43;21.58;;;10.18;;
71464;SDS011;59274;49.874;9.154;2022-12-10T00:23:09;22.33;;;9.57;;
71464;SDS011;59274;49.874;9.154;2022-12-10T00:25:37;24.03;;;10.70;;
71464;SDS011;59274;49.874;9.154;2022-12-10T00:28:03;26.45;;;10.43;;
71464;SDS011;59274;49.874;9.154;2022-12-10T00:30:28;23.60;;;9.60;;
71464;SDS011;59274;49.874;9.154;2022-12-10T00:32:53;22.57;;;10.23;;
71464;SDS011;59274;49.874;9.154;2022-12-10T00:35:19;26.33;;;10.90;;
71464;SDS011;59274;49.874;9.154;2022-12-10T00:37:44;24.25;;;10.23;;
71464;SDS011;59274;49.874;9.154;2022-12-10T00:40:10;24.60;;;9.43;;
71464;SDS011;59274;49.874;9.154;2022-12-10T00:42:36;26.67;;;10.53;;
71464;SDS011;59274;49.874;9.154;2022-12-10T00:45:02;25.85;;;11.77;;
71464;SDS011;59274;49.874;9.154;2022-12-10T00:47:28;26.30;;;11.32;;
71464;SDS011;59274;49.874;9.154;2022-12-10T00:49:54;24.80;;;10.67;;
71464;SDS011;59274;49.874;9.154;2022-12-10T00:52:19;26.00;;;10.63;;
71464;SDS011;59274;49.874;9.154;2022-12-10T00:54:45;23.37;;;10.63;;
71464;SDS011;59274;49.874;9.154;2022-12-10T00:57:10;20.88;;;9.35;;
71464;SDS011;59274;49.874;9.154;2022-12-10T00:59:36;23.90;;;10.70;;
71464;SDS011;59274;49.874;9.154;2022-12-10T01:02:01;23.80;;;10.37;;
71464;SDS011;59274;49.874;9.154;2022-12-10T01:04:26;23.87;;;10.57;;
71464;SDS011;59274;49.874;9.154;2022-12-10T01:06:52;25.10;;;10.93;;
71464;SDS011;59274;49.874;9.154;2022-12-10T01:09:23;26.60;;;10.52;;
71464;SDS011;59274;49.874;9.154;2022-12-10T01:11:51;25.35;;;11.75;;
71464;SDS011;59274;49.874;9.154;2022-12-10T01:14:19;24.63;;;10.90;;
71464;SDS011;59274;49.874;9.154;2022-12-10T01:16:56;25.63;;;10.70;;
71464;SDS011;59274;49.874;9.154;2022-12-10T01:19:24;23.67;;;10.17;;
71464;SDS011;59274;49.874;9.154;2022-12-10T01:21:50;24.88;;;10.27;;
71464;SDS011;59274;49.874;9.154;2022-12-10T01:24:20;27.27;;;10.65;;
71464;SDS011;59274;49.874;9.154;2022-12-10T01:26:46;23.02;;;10.25;;
71464;SDS011;59274;49.874;9.154;2022-12-10T01:29:12;25.10;;;11.97;;
71464;SDS011;59274;49.874;9.154;2022-12-10T01:31:38;22.58;;;10.48;;
71464;SDS011;59274;49.874;9.154;2022-12-10T01:34:04;25.37;;;10.83;;
71464;SDS011;59274;49.874;9.154;2022-12-10T01:36:35;28.70;;;12.00;;
71464;SDS011;59274;49.874;9.154;2022-12-10T01:39:03;25.38;;;10.75;;
71464;SDS011;59274;49.874;9.154;2022-12-10T01:41:31;29.13;;;11.77;;
71464;SDS011;59274;49.874;9.154;2022-12-10T01:44:00;26.90;;;10.87;;
71464;SDS011;59274;49.874;9.154;2022-12-10T01:46:33;26.42;;;10.80;;
71464;SDS011;59274;49.874;9.154;2022-12-10T01:49:01;26.55;;;10.98;;
71464;SDS011;59274;49.874;9.154;2022-12-10T01:51:31;28.65;;;11.63;;
71464;SDS011;59274;49.874;9.154;2022-12-10T01:53:58;25.20;;;10.82;;
71464;SDS011;59274;49.874;9.154;2022-12-10T01:56:24;26.60;;;10.93;;
71464;SDS011;59274;49.874;9.154;2022-12-10T01:58:50;29.88;;;11.13;;
71464;SDS011;59274;49.874;9.154;2022-12-10T02:17:36;24.38;;;10.18;;
71464;SDS011;59274;49.874;9.154;2022-12-10T02:22:37;28.95;;;10.80;;
71464;SDS011;59274;49.874;9.154;2022-12-10T02:25:08;24.70;;;10.68;;
71464;SDS011;59274;49.874;9.154;2022-12-10T02:30:17;28.58;;;10.85;;
71464;SDS011;59274;49.874;9.154;2022-12-10T02:32:43;28.17;;;11.20;;
71464;SDS011;59274;49.874;9.154;2022-12-10T02:35:19;25.50;;;11.00;;
71464;SDS011;59274;49.874;9.154;2022-12-10T02:37:50;26.88;;;10.45;;
71464;SDS011;59274;49.874;9.154;2022-12-10T02:40:23;24.40;;;10.95;;
71464;SDS011;59274;49.874;9.154;2022-12-10T02:42:51;26.90;;;11.23;;
71464;SDS011;59274;49.874;9.154;2022-12-10T02:45:18;28.47;;;11.00;;
71464;SDS011;59274;49.874;9.154;2022-12-10T02:47:47;29.25;;;11.75;;
71464;SDS011;59274;49.874;9.154;2022-12-10T02:50:13;27.98;;;11.45;;
71464;SDS011;59274;49.874;9.154;2022-12-10T02:52:41;24.60;;;11.10;;
71464;SDS011;59274;49.874;9.154;2022-12-10T02:55:10;30.17;;;11.00;;
71464;SDS011;59274;49.874;9.154;2022-12-10T02:57:42;27.55;;;10.60;;
71464;SDS011;59274;49.874;9.154;2022-12-10T03:00:16;29.33;;;12.05;;
71464;SDS011;59274;49.874;9.154;2022-12-10T03:05:13;29.02;;;11.13;;
71464;SDS011;59274;49.874;9.154;2022-12-10T03:10:11;24.83;;;10.80;;
71464;SDS011;59274;49.874;9.154;2022-12-10T03:12:43;25.23;;;10.27;;
71464;SDS011;59274;49.874;9.154;2022-12-10T03:15:14;30.07;;;10.80;;
71464;SDS011;59274;49.874;9.154;2022-12-10T03:17:42;30.02;;;11.25;;
71464;SDS011;59274;49.874;9.154;2022-12-10T03:20:11;24.90;;;10.45;;
71464;SDS011;59274;49.874;9.154;2022-12-10T03:22:39;27.35;;;11.68;;
71464;SDS011;59274;49.874;9.154;2022-12-10T03:25:08;26.42;;;11.23;;
71464;SDS011;59274;49.874;9.154;2022-12-10T03:27:38;30.17;;;10.87;;
71464;SDS011;59274;49.874;9.154;2022-12-10T03:30:06;24.40;;;10.95;;
71464;SDS011;59274;49.874;9.154;2022-12-10T03:32:32;25.55;;;10.43;;
71464;SDS011;59274;49.874;9.154;2022-12-10T03:34:58;27.13;;;10.85;;
71464;SDS011;59274;49.874;9.154;2022-12-10T03:37:25;26.95;;;10.63;;
71464;SDS011;59274;49.874;9.154;2022-12-10T03:39:52;28.83;;;10.53;;
71464;SDS011;59274;49.874;9.154;2022-12-10T03:42:18;27.70;;;10.82;;
71464;SDS011;59274;49.874;9.154;2022-12-10T03:44:43;29.93;;;11.90;;
71464;SDS011;59274;49.874;9.154;2022-12-10T03:47:10;28.60;;;11.30;;
71464;SDS011;59274;49.874;9.154;2022-12-10T03:49:39;26.67;;;10.43;;
71464;SDS011;59274;49.874;9.154;2022-12-10T03:52:05;28.83;;;10.68;;
71464;SDS011;59274;49.874;9.154;2022-12-10T03:54:31;28.37;;;10.87;;
71464;SDS011;59274;49.874;9.154;2022-12-10T03:56:56;27.77;;;10.67;;
71464;SDS011;59274;49.874;9.154;2022-12-10T03:59:22;31.73;;;10.97;;
71464;SDS011;59274;49.874;9.154;2022-12-10T04:01:47;30.00;;;11.57;;
71464;SDS011;59274;49.874;9.154;2022-12-10T04:04:13;30.13;;;11.70;;
71464;SDS011;59274;49.874;9.154;2022-12-10T04:06:38;26.03;;;11.00;;
71464;SDS011;59274;49.874;9.154;2022-12-10T04:09:05;29.15;;;11.38;;
71464;SDS011;59274;49.874;9.154;2022-12-10T04:11:30;29.93;;;12.87;;
71464;SDS011;59274;49.874;9.154;2022-12-10T04:13:56;29.77;;;12.77;;
71464;SDS011;59274;49.874;9.154;2022-12-10T04:16:40;30.10;;;11.95;;
71464;SDS011;59274;49.874;9.154;2022-12-10T04:19:10;31.45;;;12.43;;
71464;SDS011;59274;49.874;9.154;2022-12-10T04:21:38;26.92;;;10.63;;
71464;SDS011;59274;49.874;9.154;2022-12-10T04:24:24;27.83;;;11.50;;
71464;SDS011;59274;49.874;9.154;2022-12-10T04:27:12;31.20;;;12.27;;
71464;SDS011;59274;49.874;9.154;2022-12-10T04:29:58;27.83;;;12.20;;
71464;SDS011;59274;49.874;9.154;2022-12-10T04:32:25;27.45;;;10.82;;
71464;SDS011;59274;49.874;9.154;2022-12-10T04:34:53;26.75;;;10.80;;
71464;SDS011;59274;49.874;9.154;2022-12-10T04:37:19;28.10;;;12.13;;
71464;SDS011;59274;49.874;9.154;2022-12-10T04:39:46;32.85;;;10.75;;
71464;SDS011;59274;49.874;9.154;2022-12-10T04:42:11;29.70;;;11.68;;
71464;SDS011;59274;49.874;9.154;2022-12-10T04:44:37;28.15;;;11.05;;
71464;SDS011;59274;49.874;9.154;2022-12-10T04:47:04;29.03;;;11.40;;
71464;SDS011;59274;49.874;9.154;2022-12-10T04:49:31;29.27;;;11.38;;
71464;SDS011;59274;49.874;9.154;2022-12-10T04:51:56;27.88;;;10.50;;
71464;SDS011;59274;49.874;9.154;2022-12-10T04:54:25;28.38;;;10.80;;
71464;SDS011;59274;49.874;9.154;2022-12-10T04:56:51;28.40;;;10.93;;
71464;SDS011;59274;49.874;9.154;2022-12-10T04:59:16;28.67;;;10.57;;
71464;SDS011;59274;49.874;9.154;2022-12-10T05:01:42;28.00;;;10.63;;
71464;SDS011;59274;49.874;9.154;2022-12-10T05:04:09;28.70;;;11.23;;
71464;SDS011;59274;49.874;9.154;2022-12-10T05:06:36;28.13;;;11.23;;
71464;SDS011;59274;49.874;9.154;2022-12-10T05:09:02;24.48;;;10.38;;
71464;SDS011;59274;49.874;9.154;2022-12-10T05:11:28;27.52;;;11.10;;
71464;SDS011;59274;49.874;9.154;2022-12-10T05:13:55;26.83;;;10.98;;
71464;SDS011;59274;49.874;9.154;2022-12-10T05:16:23;26.92;;;10.63;;
71464;SDS011;59274;49.874;9.154;2022-12-10T05:18:50;24.17;;;10.63;;
71464;SDS011;59274;49.874;9.154;2022-12-10T05:21:16;25.30;;;10.20;;
71464;SDS011;59274;49.874;9.154;2022-12-10T05:23:44;25.83;;;10.65;;
71464;SDS011;59274;49.874;9.154;2022-12-10T05:26:24;25.65;;;11.23;;
71464;SDS011;59274;49.874;9.154;2022-12-10T05:28:54;25.73;;;11.10;;
71464;SDS011;59274;49.874;9.154;2022-12-10T05:33:47;23.52;;;9.93;;
71464;SDS011;59274;49.874;9.154;2022-12-10T05:36:14;27.38;;;10.45;;
71464;SDS011;59274;49.874;9.154;2022-12-10T05:38:41;25.58;;;11.02;;
71464;SDS011;59274;49.874;9.154;2022-12-10T05:41:09;27.60;;;10.67;;
71464;SDS011;59274;49.874;9.154;2022-12-10T05:44:00;25.13;;;9.73;;
71464;SDS011;59274;49.874;9.154;2022-12-10T05:46:27;24.97;;;9.67;;
71464;SDS011;59274;49.874;9.154;2022-12-10T05:48:55;25.75;;;10.27;;
71464;SDS011;59274;49.874;9.154;2022-12-10T05:51:22;29.55;;;10.75;;
71464;SDS011;59274;49.874;9.154;2022-12-10T05:53:52;31.52;;;11.38;;
71464;SDS011;59274;49.874;9.154;2022-12-10T05:56:20;24.27;;;10.37;;
71464;SDS011;59274;49.874;9.154;2022-12-10T05:58:49;26.70;;;10.75;;
71464;SDS011;59274;49.874;9.154;2022-12-10T06:01:18;28.30;;;11.10;;
71464;SDS011;59274;49.874;9.154;2022-12-10T06:03:44;27.02;;;10.35;;
71464;SDS011;59274;49.874;9.154;2022-12-10T06:06:10;25.87;;;10.73;;
71464;SDS011;59274;49.874;9.154;2022-12-10T06:08:36;26.92;;;11.13;;
71464;SDS011;59274;49.874;9.154;2022-12-10T06:11:05;27.87;;;12.63;;
71464;SDS011;59274;49.874;9.154;2022-12-10T06:13:32;39.90;;;15.48;;
71464;SDS011;59274;49.874;9.154;2022-12-10T06:15:57;41.03;;;15.33;;
71464;SDS011;59274;49.874;9.154;2022-12-10T06:18:23;34.33;;;12.10;;
71464;SDS011;59274;49.874;9.154;2022-12-10T06:20:49;25.03;;;10.67;;
71464;SDS011;59274;49.874;9.154;2022-12-10T06:23:14;29.50;;;11.43;;
71464;SDS011;59274;49.874;9.154;2022-12-10T06:25:40;28.05;;;11.20;;
71464;SDS011;59274;49.874;9.154;2022-12-10T06:28:05;28.87;;;11.07;;
71464;SDS011;59274;49.874;9.154;2022-12-10T06:30:32;28.48;;;11.60;;
71464;SDS011;59274;49.874;9.154;2022-12-10T06:32:58;27.35;;;11.02;;
71464;SDS011;59274;49.874;9.154;2022-12-10T06:35:24;27.67;;;10.70;;
71464;SDS011;59274;49.874;9.154;2022-12-10T06:37:50;29.67;;;11.47;;
71464;SDS011;59274;49.874;9.154;2022-12-10T06:40:15;27.90;;;10.82;;
71464;SDS011;59274;49.874;9.154;2022-12-10T06:42:41;28.40;;;11.50;;
71464;SDS011;59274;49.874;9.154;2022-12-10T06:45:07;32.42;;;12.68;;
71464;SDS011;59274;49.874;9.154;2022-12-10T06:47:33;28.33;;;12.55;;
71464;SDS011;59274;49.874;9.154;2022-12-10T06:49:58;28.47;;;12.20;;
71464;SDS011;59274;49.874;9.154;2022-12-10T06:52:24;29.73;;;12.83;;
71464;SDS011;59274;49.874;9.154;2022-12-10T06:54:49;27.60;;;12.02;;
71464;SDS011;59274;49.874;9.154;2022-12-10T06:57:15;26.83;;;11.87;;
71464;SDS011;59274;49.874;9.154;2022-12-10T06:59:40;27.77;;;12.00;;
71464;SDS011;59274;49.874;9.154;2022-12-10T07:02:07;26.90;;;11.77;;
71464;SDS011;59274;49.874;9.154;2022-12-10T07:04:33;27.02;;;10.85;;
71464;SDS011;59274;49.874;9.154;2022-12-10T07:06:59;27.90;;;11.53;;
71464;SDS011;59274;49.874;9.154;2022-12-10T07:09:24;27.47;;;10.83;;
71464;SDS011;59274;49.874;9.154;2022-12-10T07:11:50;28.30;;;11.98;;
71464;SDS011;59274;49.874;9.154;2022-12-10T07:14:16;28.13;;;11.63;;
71464;SDS011;59274;49.874;9.154;2022-12-10T07:16:42;35.72;;;12.48;;
71464;SDS011;59274;49.874;9.154;2022-12-10T07:19:08;29.53;;;12.33;;
71464;SDS011;59274;49.874;9.154;2022-12-10T07:21:36;30.45;;;12.98;;
71464;SDS011;59274;49.874;9.154;2022-12-10T07:24:04;30.30;;;12.35;;
71464;SDS011;59274;49.874;9.154;2022-12-10T07:26:41;28.37;;;11.10;;
71464;SDS011;59274;49.874;9.154;2022-12-10T07:29:12;31.27;;;11.68;;
71464;SDS011;59274;49.874;9.154;2022-12-10T07:31:39;28.83;;;12.07;;
71464;SDS011;59274;49.874;9.154;2022-12-10T07:34:05;29.10;;;11.63;;
71464;SDS011;59274;49.874;9.154;2022-12-10T07:36:31;28.38;;;11.73;;
71464;SDS011;59274;49.874;9.154;2022-12-10T07:38:56;29.37;;;12.27;;
71464;SDS011;59274;49.874;9.154;2022-12-10T07:41:22;32.13;;;13.00;;
71464;SDS011;59274;49.874;9.154;2022-12-10T07:43:48;34.20;;;14.35;;
71464;SDS011;59274;49.874;9.154;2022-12-10T07:48:42;29.33;;;12.40;;
71464;SDS011;59274;49.874;9.154;2022-12-10T07:51:09;26.27;;;12.38;;
71464;SDS011;59274;49.874;9.154;2022-12-10T07:53:35;31.85;;;13.10;;
71464;SDS011;59274;49.874;9.154;2022-12-10T07:56:00;30.27;;;12.83;;
71464;SDS011;59274;49.874;9.154;2022-12-10T07:58:27;29.38;;;12.80;;
71464;SDS011;59274;49.874;9.154;2022-12-10T08:00:52;29.50;;;12.87;;
71464;SDS011;59274;49.874;9.154;2022-12-10T08:03:18;34.80;;;13.17;;
71464;SDS011;59274;49.874;9.154;2022-12-10T08:05:43;33.17;;;13.35;;
71464;SDS011;59274;49.874;9.154;2022-12-10T08:08:09;33.90;;;14.53;;
71464;SDS011;59274;49.874;9.154;2022-12-10T08:10:35;28.67;;;11.90;;
71464;SDS011;59274;49.874;9.154;2022-12-10T08:13:02;30.83;;;13.18;;
71464;SDS011;59274;49.874;9.154;2022-12-10T08:15:27;32.60;;;12.32;;
71464;SDS011;59274;49.874;9.154;2022-12-10T08:17:53;28.80;;;12.00;;
71464;SDS011;59274;49.874;9.154;2022-12-10T08:20:19;31.63;;;13.23;;
71464;SDS011;59274;49.874;9.154;2022-12-10T08:22:45;29.13;;;12.90;;
71464;SDS011;59274;49.874;9.154;2022-12-10T08:25:11;30.60;;;13.03;;
71464;SDS011;59274;49.874;9.154;2022-12-10T08:27:36;26.70;;;11.47;;
71464;SDS011;59274;49.874;9.154;2022-12-10T08:30:02;34.80;;;12.87;;
71464;SDS011;59274;49.874;9.154;2022-12-10T08:32:28;28.13;;;11.88;;
71464;SDS011;59274;49.874;9.154;2022-12-10T08:34:53;30.07;;;12.30;;
71464;SDS011;59274;49.874;9.154;2022-12-10T08:37:18;28.97;;;11.67;;
71464;SDS011;59274;49.874;9.154;2022-12-10T08:39:44;31.53;;;12.67;;
71464;SDS011;59274;49.874;9.154;2022-12-10T08:42:09;28.35;;;11.93;;
71464;SDS011;59274;49.874;9.154;2022-12-10T08:44:35;28.42;;;13.02;;
71464;SDS011;59274;49.874;9.154;2022-12-10T08:47:00;30.47;;;12.60;;
71464;SDS011;59274;49.874;9.154;2022-12-10T08:49:26;27.17;;;11.30;;
71464;SDS011;59274;49.874;9.154;2022-12-10T08:51:51;28.93;;;12.63;;
71464;SDS011;59274;49.874;9.154;2022-12-10T08:54:17;30.02;;;12.52;;
71464;SDS011;59274;49.874;9.154;2022-12-10T08:56:42;30.17;;;12.07;;
71464;SDS011;59274;49.874;9.154;2022-12-10T08:59:08;31.50;;;12.55;;
71464;SDS011;59274;49.874;9.154;2022-12-10T09:01:33;29.30;;;11.70;;
71464;SDS011;59274;49.874;9.154;2022-12-10T09:03:59;31.90;;;12.10;;
71464;SDS011;59274;49.874;9.154;2022-12-10T09:06:25;28.25;;;11.65;;
71464;SDS011;59274;49.874;9.154;2022-12-10T09:08:51;36.63;;;12.90;;
71464;SDS011;59274;49.874;9.154;2022-12-10T09:11:18;30.97;;;13.20;;
71464;SDS011;59274;49.874;9.154;2022-12-10T09:13:48;30.33;;;12.35;;
71464;SDS011;59274;49.874;9.154;2022-12-10T09:16:14;33.67;;;12.43;;
71464;SDS011;59274;49.874;9.154;2022-12-10T09:18:40;29.42;;;12.50;;
71464;SDS011;59274;49.874;9.154;2022-12-10T09:21:07;28.47;;;11.33;;
71464;SDS011;59274;49.874;9.154;2022-12-10T09:23:33;28.17;;;11.40;;
71464;SDS011;59274;49.874;9.154;2022-12-10T09:25:59;29.58;;;11.75;;
71464;SDS011;59274;49.874;9.154;2022-12-10T09:28:25;29.87;;;11.50;;
71464;SDS011;59274;49.874;9.154;2022-12-10T09:31:00;27.40;;;11.77;;
71464;SDS011;59274;49.874;9.154;2022-12-10T09:33:26;29.02;;;11.15;;
71464;SDS011;59274;49.874;9.154;2022-12-10T09:35:53;27.27;;;11.40;;
71464;SDS011;59274;49.874;9.154;2022-12-10T09:38:18;28.93;;;11.57;;
71464;SDS011;59274;49.874;9.154;2022-12-10T09:40:51;27.80;;;12.05;;
71464;SDS011;59274;49.874;9.154;2022-12-10T09:43:24;27.10;;;12.48;;
71464;SDS011;59274;49.874;9.154;2022-12-10T09:51:23;30.38;;;12.13;;
71464;SDS011;59274;49.874;9.154;2022-12-10T09:53:52;27.40;;;11.80;;
71464;SDS011;59274;49.874;9.154;2022-12-10T09:56:25;30.13;;;11.13;;
71464;SDS011;59274;49.874;9.154;2022-12-10T09:58:53;27.73;;;12.45;;
71464;SDS011;59274;49.874;9.154;2022-12-10T10:01:19;28.17;;;12.02;;
71464;SDS011;59274;49.874;9.154;2022-12-10T10:03:52;32.17;;;13.43;;
71464;SDS011;59274;49.874;9.154;2022-12-10T10:06:18;31.58;;;12.75;;
71464;SDS011;59274;49.874;9.154;2022-12-10T10:08:54;30.05;;;12.10;;
71464;SDS011;59274;49.874;9.154;2022-12-10T10:11:24;28.58;;;12.15;;
71464;SDS011;59274;49.874;9.154;2022-12-10T10:13:54;28.17;;;11.85;;
71464;SDS011;59274;49.874;9.154;2022-12-10T10:16:27;33.50;;;13.17;;
71464;SDS011;59274;49.874;9.154;2022-12-10T10:19:19;28.02;;;12.52;;
71464;SDS011;59274;49.874;9.154;2022-12-10T10:21:49;28.83;;;11.50;;
71464;SDS011;59274;49.874;9.154;2022-12-10T10:24:16;32.55;;;12.73;;
71464;SDS011;59274;49.874;9.154;2022-12-10T10:27:01;34.53;;;12.80;;
71464;SDS011;59274;49.874;9.154;2022-12-10T10:29:37;27.50;;;12.10;;
71464;SDS011;59274;49.874;9.154;2022-12-10T10:32:16;30.38;;;13.18;;
71464;SDS011;59274;49.874;9.154;2022-12-10T10:34:51;32.15;;;13.55;;
71464;SDS011;59274;49.874;9.154;2022-12-10T10:37:20;32.60;;;12.93;;
71464;SDS011;59274;49.874;9.154;2022-12-10T10:39:50;27.40;;;12.13;;
71464;SDS011;59274;49.874;9.154;2022-12-10T10:44:57;30.92;;;13.25;;
71464;SDS011;59274;49.874;9.154;2022-12-10T10:47:24;33.35;;;13.18;;
71464;SDS011;59274;49.874;9.154;2022-12-10T10:49:55;31.93;;;13.23;;
71464;SDS011;59274;49.874;9.154;2022-12-10T10:52:20;32.28;;;12.35;;
71464;SDS011;59274;49.874;9.154;2022-12-10T10:54:46;29.50;;;12.57;;
71464;SDS011;59274;49.874;9.154;2022-12-10T10:57:25;28.95;;;12.02;;
71464;SDS011;59274;49.874;9.154;2022-12-10T10:59:51;35.85;;;13.77;;
71464;SDS011;59274;49.874;9.154;2022-12-10T11:04:48;35.87;;;14.27;;
71464;SDS011;59274;49.874;9.154;2022-12-10T11:07:36;28.77;;;13.23;;
71464;SDS011;59274;49.874;9.154;2022-12-10T11:10:04;30.20;;;13.25;;
71464;SDS011;59274;49.874;9.154;2022-12-10T11:12:44;27.42;;;11.55;;
71464;SDS011;59274;49.874;9.154;2022-12-10T11:17:50;30.37;;;12.17;;
71464;SDS011;59274;49.874;9.154;2022-12-10T11:23:12;26.60;;;12.20;;
71464;SDS011;59274;49.874;9.154;2022-12-10T11:25:52;27.15;;;11.63;;
71464;SDS011;59274;49.874;9.154;2022-12-10T11:31:08;28.77;;;12.13;;
71464;SDS011;59274;49.874;9.154;2022-12-10T11:33:58;28.08;;;12.07;;
71464;SDS011;59274;49.874;9.154;2022-12-10T11:36:57;30.88;;;12.20;;
71464;SDS011;59274;49.874;9.154;2022-12-10T11:45:10;29.80;;;13.27;;
71464;SDS011;59274;49.874;9.154;2022-12-10T11:50:37;30.15;;;12.98;;
71464;SDS011;59274;49.874;9.154;2022-12-10T11:55:53;30.25;;;13.10;;
71464;SDS011;59274;49.874;9.154;2022-12-10T12:07:22;28.23;;;12.25;;
71464;SDS011;59274;49.874;9.154;2022-12-10T12:10:05;30.77;;;12.88;;
71464;SDS011;59274;49.874;9.154;2022-12-10T12:18:12;28.80;;;12.63;;
71464;SDS011;59274;49.874;9.154;2022-12-10T12:20:45;26.83;;;12.23;;
71464;SDS011;59274;49.874;9.154;2022-12-10T12:25:53;27.90;;;11.83;;
71464;SDS011;59274;49.874;9.154;2022-12-10T12:28:23;31.00;;;14.40;;
71464;SDS011;59274;49.874;9.154;2022-12-10T12:31:00;25.10;;;11.50;;
71464;SDS011;59274;49.874;9.154;2022-12-10T12:33:37;28.15;;;12.75;;
71464;SDS011;59274;49.874;9.154;2022-12-10T12:38:47;28.80;;;12.87;;
71464;SDS011;59274;49.874;9.154;2022-12-10T12:41:29;26.70;;;12.68;;
71464;SDS011;59274;49.874;9.154;2022-12-10T12:44:04;29.05;;;13.07;;
71464;SDS011;59274;49.874;9.154;2022-12-10T12:51:40;30.00;;;13.40;;
71464;SDS011;59274;49.874;9.154;2022-12-10T12:54:13;28.52;;;12.32;;
71464;SDS011;59274;49.874;9.154;2022-12-10T12:56:46;27.83;;;12.20;;
71464;SDS011;59274;49.874;9.154;2022-12-10T13:05:30;28.05;;;12.52;;
71464;SDS011;59274;49.874;9.154;2022-12-10T13:10:57;28.25;;;12.73;;
71464;SDS011;59274;49.874;9.154;2022-12-10T13:13:33;29.52;;;13.25;;
71464;SDS011;59274;49.874;9.154;2022-12-10T13:30:05;27.63;;;12.13;;
71464;SDS011;59274;49.874;9.154;2022-12-10T13:49:02;23.27;;;10.37;;
71464;SDS011;59274;49.874;9.154;2022-12-10T13:54:24;26.52;;;11.32;;
71464;SDS011;59274;49.874;9.154;2022-12-10T13:59:34;28.13;;;13.68;;
71464;SDS011;59274;49.874;9.154;2022-12-10T14:02:18;27.43;;;11.10;;
71464;SDS011;59274;49.874;9.154;2022-12-10T14:04:51;27.50;;;12.15;;
71464;SDS011;59274;49.874;9.154;2022-12-10T14:07:23;28.45;;;11.88;;
71464;SDS011;59274;49.874;9.154;2022-12-10T14:09:52;24.58;;;11.38;;
71464;SDS011;59274;49.874;9.154;2022-12-10T14:15:07;23.87;;;11.37;;
71464;SDS011;59274;49.874;9.154;2022-12-10T14:17:41;23.80;;;10.55;;
71464;SDS011;59274;49.874;9.154;2022-12-10T14:20:11;25.25;;;10.48;;
71464;SDS011;59274;49.874;9.154;2022-12-10T14:22:45;25.35;;;11.82;;
71464;SDS011;59274;49.874;9.154;2022-12-10T14:25:14;23.45;;;10.48;;
71464;SDS011;59274;49.874;9.154;2022-12-10T14:27:42;24.70;;;11.77;;
71464;SDS011;59274;49.874;9.154;2022-12-10T14:30:16;25.65;;;10.73;;
71464;SDS011;59274;49.874;9.154;2022-12-10T14:32:42;24.40;;;10.38;;
71464;SDS011;59274;49.874;9.154;2022-12-10T14:35:15;23.83;;;10.73;;
71464;SDS011;59274;49.874;9.154;2022-12-10T14:37:45;22.15;;;10.57;;
71464;SDS011;59274;49.874;9.154;2022-12-10T14:42:46;23.10;;;10.57;;
71464;SDS011;59274;49.874;9.154;2022-12-10T14:45:13;25.30;;;10.75;;
71464;SDS011;59274;49.874;9.154;2022-12-10T14:47:40;23.27;;;10.73;;
71464;SDS011;59274;49.874;9.154;2022-12-10T14:50:12;24.55;;;10.25;;
71464;SDS011;59274;49.874;9.154;2022-12-10T14:52:42;20.70;;;9.70;;
71464;SDS011;59274;49.874;9.154;2022-12-10T14:55:15;24.35;;;11.60;;
71464;SDS011;59274;49.874;9.154;2022-12-10T14:57:44;24.77;;;11.03;;
71464;SDS011;59274;49.874;9.154;2022-12-10T15:00:17;24.98;;;12.00;;
71464;SDS011;59274;49.874;9.154;2022-12-10T15:02:47;37.58;;;16.95;;
71464;SDS011;59274;49.874;9.154;2022-12-10T15:05:21;23.15;;;10.45;;
71464;SDS011;59274;49.874;9.154;2022-12-10T15:07:54;21.63;;;10.45;;
71464;SDS011;59274;49.874;9.154;2022-12-10T15:10:23;25.17;;;10.67;;
71464;SDS011;59274;49.874;9.154;2022-12-10T15:12:52;23.13;;;10.82;;
71464;SDS011;59274;49.874;9.154;2022-12-10T15:15:21;26.48;;;12.48;;
71464;SDS011;59274;49.874;9.154;2022-12-10T15:23:18;33.57;;;14.20;;
71464;SDS011;59274;49.874;9.154;2022-12-10T15:34:08;27.23;;;11.73;;
71464;SDS011;59274;49.874;9.154;2022-12-10T15:36:39;26.23;;;10.30;;
71464;SDS011;59274;49.874;9.154;2022-12-10T15:41:57;28.50;;;12.48;;
71464;SDS011;59274;49.874;9.154;2022-12-10T15:44:45;35.75;;;14.80;;
71464;SDS011;59274;49.874;9.154;2022-12-10T15:47:21;29.60;;;12.05;;
71464;SDS011;59274;49.874;9.154;2022-12-10T15:49:51;27.30;;;12.57;;
71464;SDS011;59274;49.874;9.154;2022-12-10T15:52:23;26.92;;;11.23;;
71464;SDS011;59274;49.874;9.154;2022-12-10T15:55:10;26.50;;;11.63;;
71464;SDS011;59274;49.874;9.154;2022-12-10T15:57:42;28.63;;;11.30;;
71464;SDS011;59274;49.874;9.154;2022-12-10T16:00:15;39.50;;;16.33;;
71464;SDS011;59274;49.874;9.154;2022-12-10T16:07:37;25.63;;;11.33;;
71464;SDS011;59274;49.874;9.154;2022-12-10T16:10:04;24.45;;;10.52;;
71464;SDS011;59274;49.874;9.154;2022-12-10T16:12:31;24.92;;;11.02;;
71464;SDS011;59274;49.874;9.154;2022-12-10T16:14:58;24.70;;;11.30;;
71464;SDS011;59274;49.874;9.154;2022-12-10T16:17:28;21.30;;;10.13;;
71464;SDS011;59274;49.874;9.154;2022-12-10T16:22:43;22.80;;;11.10;;
71464;SDS011;59274;49.874;9.154;2022-12-10T16:25:09;24.30;;;12.18;;
71464;SDS011;59274;49.874;9.154;2022-12-10T16:27:35;23.63;;;11.30;;
71464;SDS011;59274;49.874;9.154;2022-12-10T16:30:40;22.73;;;10.38;;
71464;SDS011;59274;49.874;9.154;2022-12-10T16:33:05;26.13;;;10.18;;
71464;SDS011;59274;49.874;9.154;2022-12-10T16:35:31;23.23;;;10.83;;
71464;SDS011;59274;49.874;9.154;2022-12-10T16:37:57;24.75;;;10.85;;
71464;SDS011;59274;49.874;9.154;2022-12-10T16:40:24;21.00;;;9.75;;
71464;SDS011;59274;49.874;9.154;2022-12-10T16:42:53;25.92;;;12.07;;
71464;SDS011;59274;49.874;9.154;2022-12-10T16:45:21;28.02;;;11.93;;
71464;SDS011;59274;49.874;9.154;2022-12-10T16:47:51;20.80;;;9.32;;
71464;SDS011;59274;49.874;9.154;2022-12-10T16:50:17;20.90;;;9.10;;
71464;SDS011;59274;49.874;9.154;2022-12-10T16:52:43;20.20;;;8.90;;
71464;SDS011;59274;49.874;9.154;2022-12-10T16:55:11;19.27;;;8.57;;
71464;SDS011;59274;49.874;9.154;2022-12-10T16:57:38;23.00;;;9.00;;
71464;SDS011;59274;49.874;9.154;2022-12-10T17:00:05;18.27;;;8.77;;
71464;SDS011;59274;49.874;9.154;2022-12-10T17:02:31;19.37;;;8.63;;
71464;SDS011;59274;49.874;9.154;2022-12-10T17:04:57;22.40;;;9.88;;
71464;SDS011;59274;49.874;9.154;2022-12-10T17:07:22;22.50;;;9.70;;
71464;SDS011;59274;49.874;9.154;2022-12-10T17:09:47;22.40;;;9.43;;
71464;SDS011;59274;49.874;9.154;2022-12-10T17:12:13;18.93;;;8.87;;
71464;SDS011;59274;49.874;9.154;2022-12-10T17:14:39;19.67;;;10.02;;